^^
Saratoga-Weather Station Historical Data
Daily Summary for June 25, 2021 Units:  English    Metric   Both
Daily Weekly Monthly Yearly Custom
  High: Low: Average:
Temperature: 75 °F 54 °F 63.7 °F
Dew Point: 57 °F 50.2 °F 53.4 °F
Humidity: 88% 49% 71%
Wind Speed: 8.1mph 0mph 1.4mph
Wind Gust: 11mph - -
Wind- - South
Pressure: 30.2 in 30 in -
Precipitation: 0 in    
Historical Graphs
 
 
Tabular Data for June 25, 2021
Time Temperature Dew Point Pressure Wind Wind Speed Wind Gust Humidity Rainfall Rate (Hourly) solar
00:04 59.2 °F 54.3 °F 30.2 in Calm   1 mph 84% 0 in 0 W/m2
00:09 59 °F 54.1 °F 30.2 in Calm   2 mph 84% 0 in 0 W/m2
00:14 58.8 °F 54.3 °F 30.2 in West 0.9 mph 2 mph 85% 0 in 0 W/m2
00:19 58.6 °F 54.1 °F 30.2 in West 0.9 mph 2 mph 85% 0 in 0 W/m2
00:24 58.6 °F 54.1 °F 30.2 in WNW 0.9 mph 2 mph 85% 0 in 0 W/m2
00:29 58.6 °F 54.1 °F 30.2 in WSW 0.9 mph 2 mph 85% 0 in 0 W/m2
00:34 58.6 °F 54.1 °F 30.2 in NW 0.9 mph 3 mph 85% 0 in 0 W/m2
00:39 58.6 °F 54.1 °F 30.2 in SW 0.9 mph 2 mph 85% 0 in 0 W/m2
00:44 58.5 °F 54.3 °F 30.2 in West 2 mph 2 mph 86% 0 in 0 W/m2
00:49 58.3 °F 54.1 °F 30.2 in Calm   2 mph 86% 0 in 0 W/m2
00:54 58.1 °F 54 °F 30.2 in West 2 mph 2 mph 86% 0 in 0 W/m2
00:59 57.9 °F 54.1 °F 30.2 in West 2 mph 3 mph 87% 0 in 0 W/m2
01:04 57.9 °F 54.1 °F 30.2 in WNW 2 mph 3 mph 87% 0 in 0 W/m2
01:09 57.9 °F 54.1 °F 30.2 in WSW 4 mph 5 mph 87% 0 in 0 W/m2
01:14 57.7 °F 54 °F 30.2 in Calm   4 mph 87% 0 in 0 W/m2
01:19 57.7 °F 54 °F 30.2 in WNW 5 mph 5 mph 87% 0 in 0 W/m2
01:24 57.7 °F 54 °F 30.2 in West 0.9 mph 4 mph 87% 0 in 0 W/m2
01:29 57.7 °F 54 °F 30.2 in West 2.9 mph 4 mph 87% 0 in 0 W/m2
01:34 57.7 °F 54 °F 30.2 in West 0.9 mph 1 mph 87% 0 in 0 W/m2
01:39 57.6 °F 53.8 °F 30.2 in West 0.9 mph 2 mph 87% 0 in 0 W/m2
01:44 57.4 °F 53.6 °F 30.2 in West 0.9 mph 2 mph 87% 0 in 0 W/m2
01:49 57.2 °F 53.4 °F 30.2 in Calm   1 mph 87% 0 in 0 W/m2
01:54 57 °F 53.2 °F 30.2 in Calm   3 mph 87% 0 in 0 W/m2
01:59 57 °F 53.4 °F 30.2 in WNW 2 mph 3 mph 88% 0 in 0 W/m2
02:04 57 °F 53.2 °F 30.2 in WNW 0.9 mph 2 mph 87% 0 in 0 W/m2
02:09 57 °F 53.2 °F 30.2 in Calm   2 mph 87% 0 in 0 W/m2
02:14 57 °F 53.2 °F 30.2 in NW 2 mph 2 mph 87% 0 in 0 W/m2
02:19 57 °F 52.9 °F 30.2 in Calm     86% 0 in 0 W/m2
02:24 56.8 °F 52.7 °F 30.2 in Calm   2 mph 86% 0 in 0 W/m2
02:29 56.7 °F 52.9 °F 30.2 in Calm   1 mph 87% 0 in 0 W/m2
02:34 56.5 °F 52.7 °F 30.2 in NW 0.9 mph 2 mph 87% 0 in 0 W/m2
02:39 56.1 °F 52.3 °F 30.2 in Calm   1 mph 87% 0 in 0 W/m2
02:44 56.1 °F 52.3 °F 30.2 in SW 2 mph 2 mph 87% 0 in 0 W/m2
02:49 55.9 °F 52.2 °F 30.2 in SE 0.9 mph 3 mph 87% 0 in 0 W/m2
02:54 56.1 °F 52.3 °F 30.2 in Calm   2 mph 87% 0 in 0 W/m2
02:59 56.3 °F 52.2 °F 30.2 in SSE 0.9 mph 2 mph 86% 0 in 0 W/m2
03:04 56.5 °F 52.3 °F 30.2 in Calm   3 mph 86% 0 in 0 W/m2
03:09 56.7 °F 52.2 °F 30.2 in NE 2 mph 3 mph 85% 0 in 0 W/m2
03:14 56.7 °F 52.2 °F 30.2 in ESE 0.9 mph 2 mph 85% 0 in 0 W/m2
03:19 56.8 °F 52 °F 30.2 in NW 0.9 mph 4 mph 84% 0 in 0 W/m2
03:24 56.7 °F 51.8 °F 30.2 in SSW 0.9 mph 2 mph 84% 0 in 0 W/m2
03:29 56.7 °F 51.8 °F 30.2 in ESE 0.9 mph 4 mph 84% 0 in 0 W/m2
03:34 56.7 °F 51.8 °F 30.2 in Calm   1 mph 84% 0 in 0 W/m2
03:39 56.5 °F 51.6 °F 30.2 in WNW 2 mph 3 mph 84% 0 in 0 W/m2
03:44 56.5 °F 51.6 °F 30.2 in WNW 0.9 mph 3 mph 84% 0 in 0 W/m2
03:49 56.1 °F 51.4 °F 30.2 in WNW 0.9 mph 1 mph 84% 0 in 0 W/m2
03:54 55.9 °F 51.4 °F 30.2 in WSW 0.9 mph 3 mph 85% 0 in 0 W/m2
03:59 55.9 °F 51.4 °F 30.2 in WSW 0.9 mph 2 mph 85% 0 in 0 W/m2
04:04 55.6 °F 51.1 °F 30.2 in WNW 0.9 mph 2 mph 85% 0 in 0 W/m2
04:09 55.6 °F 51.1 °F 30.2 in WNW 2 mph 3 mph 85% 0 in 0 W/m2
04:14 55.4 °F 51.3 °F 30.2 in Calm   2 mph 86% 0 in 0 W/m2
04:19 55.2 °F 51.1 °F 30.2 in Calm   3 mph 86% 0 in 0 W/m2
04:24 55 °F 50.9 °F 30.2 in WSW 0.9 mph 2 mph 86% 0 in 0 W/m2
04:29 54.9 °F 50.7 °F 30.2 in Calm   1 mph 86% 0 in 0 W/m2
04:34 54.9 °F 51.1 °F 30.2 in Calm   2 mph 87% 0 in 0 W/m2
04:39 54.9 °F 51.1 °F 30.2 in Calm   1 mph 87% 0 in 0 W/m2
04:44 54.7 °F 50.9 °F 30.2 in Calm     87% 0 in 0 W/m2
04:49 54.5 °F 50.7 °F 30.2 in Calm   1 mph 87% 0 in 0 W/m2
04:54 54.3 °F 50.5 °F 30.2 in Calm   2 mph 87% 0 in 0 W/m2
04:59 54.1 °F 50.7 °F 30.2 in NNE 0.9 mph 5 mph 88% 0 in 0 W/m2
05:04 54.1 °F 50.4 °F 30.2 in WNW 0.9 mph 2 mph 87% 0 in 0 W/m2
05:09 54.3 °F 50.5 °F 30.2 in Calm   5 mph 87% 0 in 0 W/m2
05:14 54.1 °F 50.4 °F 30.2 in WSW 0.9 mph 2 mph 87% 0 in 0 W/m2
05:19 54.1 °F 50.4 °F 30.2 in Calm   1 mph 87% 0 in 0 W/m2
05:24 54 °F 50.5 °F 30.2 in West 0.9 mph 3 mph 88% 0 in 0 W/m2
05:29 54 °F 50.5 °F 30.2 in West 0.9 mph 2 mph 88% 0 in 0 W/m2
05:34 54 °F 50.5 °F 30.2 in West 2.9 mph 3 mph 88% 0 in 0 W/m2
05:39 54 °F 50.5 °F 30.2 in Calm   3 mph 88% 0 in 0 W/m2
05:44 54 °F 50.5 °F 30.2 in West 0.9 mph 2 mph 88% 0 in 0 W/m2
05:49 54 °F 50.5 °F 30.2 in Calm   4 mph 88% 0 in 0 W/m2
05:54 54 °F 50.5 °F 30.2 in SSW 0.9 mph 2 mph 88% 0 in 0 W/m2
05:59 54 °F 50.5 °F 30.2 in ESE 0.9 mph 2 mph 88% 0 in 0 W/m2
06:04 54 °F 50.5 °F 30.2 in North 0.9 mph 2 mph 88% 0 in 0 W/m2
06:09 54.1 °F 50.4 °F 30.2 in West 0.9 mph 2 mph 87% 0 in 0 W/m2
06:14 54.1 °F 50.4 °F 30.2 in Calm   2 mph 87% 0 in 0 W/m2
06:19 54 °F 50.2 °F 30.2 in West 2 mph 4 mph 87% 0 in 0 W/m2
06:24 54.1 °F 50.4 °F 30.2 in WNW 0.9 mph 2 mph 87% 0 in 0 W/m2
06:29 54.1 °F 50.4 °F 30.2 in WNW 2 mph 2 mph 87% 0 in 0 W/m2
06:34 54.3 °F 50.5 °F 30.2 in WSW 0.9 mph 3 mph 87% 0 in 0 W/m2
06:39 54.3 °F 50.2 °F 30.2 in NNW 0.9 mph 2 mph 86% 0 in 0 W/m2
06:44 54.3 °F 50.2 °F 30.2 in WSW 0.9 mph 1 mph 86% 0 in 5 W/m2
06:50 54.1 °F 50.4 °F 30.2 in WSW 0.9 mph 2 mph 87% 0 in 9 W/m2
06:55 54.1 °F 50.4 °F 30.2 in WSW 2 mph 2 mph 87% 0 in 11 W/m2
07:00 54.1 °F 50.4 °F 30.2 in Calm   1 mph 87% 0 in 12 W/m2
07:05 54 °F 50.2 °F 30.2 in WNW 0.9 mph 2 mph 87% 0 in 16 W/m2
07:10 54.1 °F 50.4 °F 30.2 in NNW 0.9 mph 2 mph 87% 0 in 19 W/m2
07:15 54.3 °F 50.5 °F 30.2 in West 2 mph 5 mph 87% 0 in 21 W/m2
07:20 54.3 °F 50.2 °F 30.2 in West 2 mph 2 mph 86% 0 in 25 W/m2
07:25 54.5 °F 50.4 °F 30.2 in WNW 2 mph 5 mph 86% 0 in 26 W/m2
07:30 54.5 °F 50.4 °F 30.2 in Calm     86% 0 in 28 W/m2
07:35 54.7 °F 50.5 °F 30.2 in West 0.9 mph 3 mph 86% 0 in 30 W/m2
07:40 54.7 °F 50.5 °F 30.2 in NNW 0.9 mph 2 mph 86% 0 in 33 W/m2
07:45 54.7 °F 50.5 °F 30.2 in Calm     86% 0 in 35 W/m2
07:50 54.9 °F 50.7 °F 30.2 in Calm   3 mph 86% 0 in 37 W/m2
07:55 54.9 °F 50.7 °F 30.2 in WNW 2 mph 3 mph 86% 0 in 39 W/m2
08:00 55 °F 50.9 °F 30.2 in WNW 0.9 mph 2 mph 86% 0 in 42 W/m2
08:05 55.2 °F 51.1 °F 30.2 in WNW 0.9 mph 2 mph 86% 0 in 44 W/m2
08:10 55.4 °F 50.9 °F 30.2 in NW 0.9 mph 2 mph 85% 0 in 46 W/m2
08:15 55.8 °F 51.3 °F 30.2 in NW 0.9 mph 2 mph 85% 0 in 47 W/m2
08:20 55.9 °F 51.4 °F 30.2 in NNE 0.9 mph 3 mph 85% 0 in 49 W/m2
08:25 56.3 °F 51.4 °F 30.2 in Calm   2 mph 84% 0 in 84 W/m2
08:30 56.7 °F 51.8 °F 30.2 in NE 0.9 mph 4 mph 84% 0 in 151 W/m2
08:35 57 °F 52 °F 30.2 in Calm   2 mph 83% 0 in 214 W/m2
08:40 57.4 °F 52.3 °F 30.2 in ESE 2 mph 4 mph 83% 0 in 232 W/m2
08:45 57.7 °F 52.3 °F 30.2 in WNW 0.9 mph 2 mph 82% 0 in 229 W/m2
08:50 57.9 °F 52.5 °F 30.2 in East 2.9 mph 5 mph 82% 0 in 214 W/m2
08:55 58.3 °F 52.9 °F 30.2 in ENE 0.9 mph 3 mph 82% 0 in 243 W/m2
09:00 58.5 °F 52.7 °F 30.2 in NW 2 mph 4 mph 81% 0 in 258 W/m2
09:05 58.6 °F 52.9 °F 30.2 in NNE 0.9 mph 4 mph 81% 0 in 278 W/m2
09:10 58.8 °F 53.1 °F 30.2 in ENE 2 mph 4 mph 81% 0 in 267 W/m2
09:15 59 °F 53.2 °F 30.2 in NE 2 mph 4 mph 81% 0 in 271 W/m2
09:20 59.2 °F 53.4 °F 30.2 in Calm   4 mph 81% 0 in 135 W/m2
09:25 59.5 °F 53.8 °F 30.2 in NE 2 mph 4 mph 81% 0 in 102 W/m2
09:30 59.7 °F 54 °F 30.2 in NE 0.9 mph 2 mph 81% 0 in 301 W/m2
09:35 60.3 °F 54.1 °F 30.2 in NE 0.9 mph 2 mph 80% 0 in 341 W/m2
09:40 60.6 °F 54.1 °F 30.2 in NNW 4 mph 7 mph 79% 0 in 339 W/m2
09:45 61.2 °F 54.7 °F 30.2 in NW 2 mph 8 mph 79% 0 in 381 W/m2
09:50 61.5 °F 54.7 °F 30.2 in East 2.9 mph 3 mph 78% 0 in 388 W/m2
09:55 61.9 °F 54.7 °F 30.2 in NE 0.9 mph 6 mph 77% 0 in 424 W/m2
10:00 62.1 °F 54.7 °F 30.2 in NNE 0.9 mph 4 mph 77% 0 in 443 W/m2
10:05 62.4 °F 54.7 °F 30.2 in NW 2 mph 5 mph 76% 0 in 445 W/m2
10:10 62.8 °F 55.4 °F 30.2 in NNE 0.9 mph 3 mph 77% 0 in 462 W/m2
10:15 63.1 °F 55 °F 30.2 in NE 4 mph 5 mph 75% 0 in 480 W/m2
10:20 63.5 °F 55.4 °F 30.2 in ENE 2.9 mph 8 mph 75% 0 in 499 W/m2
10:25 63.9 °F 55.8 °F 30.2 in ENE 2 mph 4 mph 75% 0 in 492 W/m2
10:30 64.6 °F 56.5 °F 30.2 in ESE 0.9 mph 8 mph 75% 0 in 524 W/m2
10:35 64.9 °F 56.5 °F 30.2 in East 0.9 mph 3 mph 74% 0 in 534 W/m2
10:40 65.3 °F 56.5 °F 30.2 in SE 4 mph 7 mph 73% 0 in 545 W/m2
10:45 65.5 °F 56.7 °F 30.2 in North 2 mph 6 mph 73% 0 in 559 W/m2
10:50 65.7 °F 56.3 °F 30.1 in Calm   7 mph 72% 0 in 570 W/m2
10:55 66.2 °F 56.5 °F 30.1 in NE 2.9 mph 5 mph 71% 0 in 577 W/m2
11:00 66.4 °F 56.7 °F 30.1 in NE 4.9 mph 9 mph 71% 0 in 594 W/m2
11:05 66.6 °F 56.8 °F 30.1 in ENE 0.9 mph 4 mph 71% 0 in 603 W/m2
11:10 66.9 °F 55.9 °F 30.1 in NE 0.9 mph 9 mph 68% 0 in 613 W/m2
11:15 67.5 °F 56.5 °F 30.1 in East 2.9 mph 8 mph 68% 0 in 617 W/m2
11:20 67.6 °F 56.3 °F 30.1 in NNE 6 mph 8 mph 67% 0 in 561 W/m2
11:25 67.6 °F 56.3 °F 30.1 in ENE 2.9 mph 5 mph 67% 0 in 628 W/m2
11:30 67.8 °F 56.1 °F 30.1 in Calm   3 mph 66% 0 in 640 W/m2
11:35 68.4 °F 57 °F 30.1 in Calm   5 mph 67% 0 in 657 W/m2
11:40 68.7 °F 56.5 °F 30.1 in NNW 2.9 mph 3 mph 65% 0 in 659 W/m2
11:45 69.1 °F 55.9 °F 30.1 in North 2.9 mph 8 mph 63% 0 in 673 W/m2
11:50 69.3 °F 56.1 °F 30.1 in East 2.9 mph 5 mph 63% 0 in 708 W/m2
11:55 69.4 °F 55.9 °F 30.1 in East 2.9 mph 6 mph 62% 0 in 693 W/m2
12:00 69.6 °F 55.6 °F 30.1 in SSE 2.9 mph 10 mph 61% 0 in 737 W/m2
12:05 69.4 °F 55.9 °F 30.1 in SE 0.9 mph 4 mph 62% 0 in 729 W/m2
12:10 69.6 °F 55.9 °F 30.1 in ESE 2 mph 5 mph 62% 0 in 127 W/m2
12:15 69.6 °F 55.6 °F 30.1 in Calm   4 mph 61% 0 in 255 W/m2
12:20 69.6 °F 55 °F 30.1 in North 4 mph 6 mph 60% 0 in 809 W/m2
12:25 70.2 °F 55.6 °F 30.1 in East 2.9 mph 7 mph 60% 0 in 789 W/m2
12:30 70.5 °F 55.6 °F 30.1 in ENE 8.1 mph 8 mph 59% 0 in 896 W/m2
12:35 70.5 °F 55 °F 30.1 in East 2 mph 5 mph 58% 0 in 171 W/m2
12:40 70.3 °F 54.3 °F 30.1 in NE 4.9 mph 11 mph 57% 0 in 814 W/m2
12:45 70.3 °F 53.4 °F 30.1 in East 2.9 mph 9 mph 55% 0 in 814 W/m2
12:50 70.7 °F 53.8 °F 30.1 in ENE 2 mph 4 mph 55% 0 in 729 W/m2
12:55 71.1 °F 53.6 °F 30.1 in SE 4.9 mph 9 mph 54% 0 in 788 W/m2
13:00 71.1 °F 54.1 °F 30.1 in East 2 mph 3 mph 55% 0 in 800 W/m2
13:05 71.1 °F 53.6 °F 30.1 in NW 0.9 mph 9 mph 54% 0 in 214 W/m2
13:10 70.9 °F 53.4 °F 30.1 in East 4 mph 9 mph 54% 0 in 816 W/m2
13:15 70.9 °F 53.4 °F 30.1 in ENE 2.9 mph 7 mph 54% 0 in 791 W/m2
13:20 71.2 °F 53.8 °F 30.1 in ENE 6.9 mph 7 mph 54% 0 in 840 W/m2
13:25 71.6 °F 54.1 °F 30.1 in East 0.9 mph 7 mph 54% 0 in 788 W/m2
13:30 71.8 °F 53.8 °F 30.1 in ESE 0.9 mph 8 mph 53% 0 in 789 W/m2
13:35 71.8 °F 53.8 °F 30.1 in NNE 2.9 mph 7 mph 53% 0 in 809 W/m2
13:40 72.1 °F 52.5 °F 30.1 in NNW 2.9 mph 5 mph 50% 0 in 798 W/m2
13:45 72.7 °F 52.9 °F 30.1 in ENE 2.9 mph 9 mph 50% 0 in 791 W/m2
13:50 72.9 °F 53.1 °F 30.1 in East 2 mph 6 mph 50% 0 in 814 W/m2
13:55 73 °F 52.7 °F 30.1 in ESE 4 mph 7 mph 49% 0 in 802 W/m2
14:00 73 °F 52.7 °F 30.1 in East 2.9 mph 9 mph 49% 0 in 807 W/m2
14:05 73.2 °F 53.4 °F 30.1 in ENE 0.9 mph 9 mph 50% 0 in 789 W/m2
14:10 73 °F 52.7 °F 30.1 in NNE 2 mph 8 mph 49% 0 in 791 W/m2
14:15 73.2 °F 52.9 °F 30.1 in NNE 2 mph 3 mph 49% 0 in 809 W/m2
14:20 73.6 °F 53.8 °F 30.1 in ENE 2 mph 2 mph 50% 0 in 814 W/m2
14:25 73.9 °F 53.6 °F 30.1 in East 2.9 mph 6 mph 49% 0 in 858 W/m2
14:30 73.9 °F 54.1 °F 30.1 in East 6.9 mph 8 mph 50% 0 in 838 W/m2
14:35 73.9 °F 53.6 °F 30.1 in North 2 mph 5 mph 49% 0 in 824 W/m2
14:41 73.9 °F 54.1 °F 30.1 in WNW 2 mph 7 mph 50% 0 in 895 W/m2
14:46 73.6 °F 54.3 °F 30.1 in ENE 4.9 mph 7 mph 51% 0 in 211 W/m2
14:51 72.7 °F 55 °F 30.1 in NE 2 mph 8 mph 54% 0 in 214 W/m2
14:56 72.9 °F 54.7 °F 30.1 in NW 4.9 mph 8 mph 53% 0 in 740 W/m2
15:01 72.9 °F 54.7 °F 30.1 in WNW 0.9 mph 3 mph 53% 0 in 255 W/m2
15:06 73 °F 55.4 °F 30.1 in NNW 2.9 mph 5 mph 54% 0 in 819 W/m2
15:11 73.2 °F 55 °F 30.1 in ESE 4 mph 7 mph 53% 0 in 754 W/m2
15:16 73.4 °F 54.7 °F 30.1 in ENE 2 mph 4 mph 52% 0 in 737 W/m2
15:21 73.8 °F 56.7 °F 30.1 in NNW 0.9 mph 5 mph 55% 0 in 800 W/m2
15:26 74.1 °F 54.9 °F 30.1 in West 2.9 mph 6 mph 51% 0 in 399 W/m2
15:31 73.9 °F 55.8 °F 30.1 in North 2.9 mph 5 mph 53% 0 in 380 W/m2
15:36 73.8 °F 55 °F 30.1 in NNE 0.9 mph 3 mph 52% 0 in 251 W/m2
15:41 73.6 °F 54.3 °F 30.1 in West 0.9 mph 7 mph 51% 0 in 784 W/m2
15:46 73.6 °F 55.4 °F 30.1 in ENE 4.9 mph 5 mph 53% 0 in 735 W/m2
15:51 73.8 °F 55.6 °F 30.1 in NE 2.9 mph 4 mph 53% 0 in 758 W/m2
15:56 73.9 °F 55.2 °F 30.1 in ESE 2.9 mph 4 mph 52% 0 in 717 W/m2
16:01 73.8 °F 55.6 °F 30.1 in ENE 0.9 mph 5 mph 53% 0 in 294 W/m2
16:06 73.6 °F 54.3 °F 30.1 in East 2 mph 2 mph 51% 0 in 422 W/m2
16:11 73.6 °F 55.4 °F 30.1 in West 0.9 mph 3 mph 53% 0 in 666 W/m2
16:16 73.9 °F 55.2 °F 30.1 in NNW 0.9 mph 5 mph 52% 0 in 631 W/m2
16:21 74.1 °F 54.9 °F 30.1 in NNW 0.9 mph 4 mph 51% 0 in 613 W/m2
16:26 74.5 °F 54.7 °F 30.1 in WNW 4 mph 7 mph 50% 0 in 624 W/m2
16:31 74.3 °F 55 °F 30.1 in ESE 0.9 mph 7 mph 51% 0 in 563 W/m2
16:36 74.3 °F 55.6 °F 30.1 in NNW 2.9 mph 3 mph 52% 0 in 628 W/m2
16:41 74.5 °F 55.2 °F 30.1 in NNE 0.9 mph 5 mph 51% 0 in 592 W/m2
16:46 74.1 °F 55.4 °F 30.1 in NNW 2 mph 6 mph 52% 0 in 592 W/m2
16:51 74.1 °F 54.9 °F 30.1 in NNE 0.9 mph 3 mph 51% 0 in 571 W/m2
16:56 74.1 °F 54.9 °F 30.1 in Calm   2 mph 51% 0 in 554 W/m2
17:01 74.5 °F 55.2 °F 30.1 in NNW 2.9 mph 7 mph 51% 0 in 540 W/m2
17:06 74.7 °F 55.4 °F 30.1 in North 0.9 mph 3 mph 51% 0 in 529 W/m2
17:11 74.8 °F 55.6 °F 30.1 in WNW 2 mph 3 mph 51% 0 in 533 W/m2
17:16 75 °F 55.6 °F 30.1 in NNW 0.9 mph 8 mph 51% 0 in 155 W/m2
17:21 74.7 °F 55.4 °F 30.1 in Calm   2 mph 51% 0 in 120 W/m2
17:26 74.3 °F 55 °F 30.1 in East 4.9 mph 9 mph 51% 0 in 441 W/m2
17:31 73.9 °F 54.7 °F 30.1 in NE 2 mph 6 mph 51% 0 in 396 W/m2
17:36 73.9 °F 54.7 °F 30.1 in ENE 2 mph 4 mph 51% 0 in 394 W/m2
17:41 73.9 °F 54.7 °F 30.1 in SW 0.9 mph 4 mph 51% 0 in 429 W/m2
17:46 74.3 °F 55.6 °F 30 in WNW 2.9 mph 3 mph 52% 0 in 399 W/m2
17:51 74.5 °F 55.2 °F 30.1 in SW 2 mph 6 mph 51% 0 in 380 W/m2
17:56 74.1 °F 54.3 °F 30 in WNW 4 mph 5 mph 50% 0 in 385 W/m2
18:01 74.1 °F 54.3 °F 30 in NNW 2 mph 6 mph 50% 0 in 357 W/m2
18:06 73.9 °F 54.7 °F 30 in ENE 0.9 mph 4 mph 51% 0 in 357 W/m2
18:11 73.9 °F 55.2 °F 30 in Calm   3 mph 52% 0 in 329 W/m2
18:16 74.1 °F 54.9 °F 30 in ENE 0.9 mph 4 mph 51% 0 in 315 W/m2
18:21 74.1 °F 54.9 °F 30 in NW 2.9 mph 6 mph 51% 0 in 309 W/m2
18:26 74.1 °F 54.3 °F 30 in NW 0.9 mph 4 mph 50% 0 in 299 W/m2
18:31 74.3 °F 54 °F 30 in Calm   6 mph 49% 0 in 287 W/m2
18:36 74.1 °F 53.8 °F 30 in NW 4 mph 6 mph 49% 0 in 271 W/m2
18:41 73.9 °F 54.1 °F 30 in East 4.9 mph 5 mph 50% 0 in 258 W/m2
18:46 73.9 °F 53.6 °F 30 in NE 2 mph 6 mph 49% 0 in 243 W/m2
18:51 73.8 °F 54 °F 30 in NW 2 mph 2 mph 50% 0 in 232 W/m2
18:56 73.8 °F 53.4 °F 30 in Calm   6 mph 49% 0 in 216 W/m2
19:01 73.8 °F 54 °F 30 in Calm   1 mph 50% 0 in 202 W/m2
19:06 73.6 °F 54.3 °F 30 in NW 0.9 mph 6 mph 51% 0 in 185 W/m2
19:11 73.4 °F 54.1 °F 30 in West 2 mph 4 mph 51% 0 in 162 W/m2
19:16 72.9 °F 53.6 °F 30 in NNW 0.9 mph 3 mph 51% 0 in 148 W/m2
19:21 72.7 °F 53.4 °F 30 in ENE 0.9 mph 2 mph 51% 0 in 127 W/m2
19:26 72.7 °F 52.9 °F 30 in SSE 0.9 mph 2 mph 50% 0 in 111 W/m2
19:31 72.5 °F 52.9 °F 30 in NE 2.9 mph 3 mph 50% 0 in 98 W/m2
19:36 72.3 °F 53.2 °F 30 in NE 2 mph 3 mph 51% 0 in 77 W/m2
19:41 72.1 °F 53.1 °F 30 in ENE 0.9 mph 2 mph 51% 0 in 67 W/m2
19:46 72.1 °F 55 °F 30 in East 0.9 mph 2 mph 55% 0 in 56 W/m2
19:51 71.8 °F 55.2 °F 30 in East 0.9 mph 2 mph 56% 0 in 47 W/m2
19:56 71.2 °F 56.1 °F 30 in ESE 0.9 mph 1 mph 59% 0 in 33 W/m2
20:01 70.5 °F 55.6 °F 30 in ESE 0.9 mph 1 mph 59% 0 in 19 W/m2
20:06 70 °F 55.4 °F 30 in ESE 0.9 mph 1 mph 60% 0 in 14 W/m2
20:11 69.3 °F 55.8 °F 30 in Calm   2 mph 62% 0 in 12 W/m2
20:16 68.4 °F 55.2 °F 30 in Calm   2 mph 63% 0 in 11 W/m2
20:22 67.6 °F 55 °F 30 in Calm     64% 0 in 7 W/m2
20:27 66.9 °F 54.9 °F 30 in ESE 0.9 mph 2 mph 65% 0 in 5 W/m2
20:32 66.6 °F 54.9 °F 30 in ESE 0.9 mph 2 mph 66% 0 in 5 W/m2
20:37 65.8 °F 54.5 °F 30 in ESE 0.9 mph 2 mph 67% 0 in 0 W/m2
20:42 65.5 °F 54.7 °F 30 in Calm   1 mph 68% 0 in 0 W/m2
20:47 64.9 °F 54.1 °F 30 in Calm     68% 0 in 0 W/m2
20:52 64.4 °F 54 °F 30 in Calm     69% 0 in 0 W/m2
20:57 64 °F 54.1 °F 30 in Calm     70% 0 in 0 W/m2
21:02 63.7 °F 53.8 °F 30 in Calm     70% 0 in 0 W/m2
21:07 63.3 °F 53.8 °F 30 in Calm     71% 0 in 0 W/m2
21:12 63 °F 53.8 °F 30 in Calm     72% 0 in 0 W/m2
21:17 62.6 °F 53.4 °F 30 in Calm   1 mph 72% 0 in 0 W/m2
21:22 62.4 °F 53.6 °F 30 in Calm     73% 0 in 0 W/m2
21:27 62.1 °F 53.2 °F 30 in Calm   1 mph 73% 0 in 0 W/m2
21:32 61.9 °F 53.4 °F 30 in Calm     74% 0 in 0 W/m2
21:37 61.7 °F 53.2 °F 30 in Calm     74% 0 in 0 W/m2
21:42 61.5 °F 53.6 °F 30 in Calm     75% 0 in 0 W/m2
21:47 61.2 °F 53.2 °F 30 in Calm     75% 0 in 0 W/m2
21:52 61 °F 53.4 °F 30 in Calm     76% 0 in 0 W/m2
21:57 60.6 °F 53.1 °F 30 in Calm     76% 0 in 0 W/m2
22:02 60.4 °F 53.2 °F 30 in Calm     77% 0 in 0 W/m2
22:07 60.3 °F 53.1 °F 30 in Calm     77% 0 in 0 W/m2
22:12 60.1 °F 53.2 °F 30 in Calm     78% 0 in 0 W/m2
22:17 59.9 °F 53.1 °F 30 in Calm   1 mph 78% 0 in 0 W/m2
22:22 59.7 °F 52.9 °F 30 in Calm     78% 0 in 0 W/m2
22:27 59.5 °F 53.1 °F 30 in Calm   1 mph 79% 0 in 0 W/m2
22:32 59.4 °F 52.9 °F 30 in Calm   1 mph 79% 0 in 0 W/m2
22:37 59.4 °F 52.9 °F 30 in West 0.9 mph 2 mph 79% 0 in 0 W/m2
22:42 59.2 °F 52.7 °F 30 in Calm   1 mph 79% 0 in 0 W/m2
22:47 59.4 °F 52.9 °F 30 in Calm   2 mph 79% 0 in 0 W/m2
22:52 59.5 °F 52.7 °F 30 in West 0.9 mph 2 mph 78% 0 in 0 W/m2
22:57 59.7 °F 52.5 °F 30 in West 0.9 mph 3 mph 77% 0 in 0 W/m2
23:02 60.3 °F 52.7 °F 30 in West 2 mph 4 mph 76% 0 in 0 W/m2
23:07 60.8 °F 53.2 °F 30 in WSW 0.9 mph 3 mph 76% 0 in 0 W/m2
23:12 61.2 °F 53.6 °F 30 in WSW 2 mph 4 mph 76% 0 in 0 W/m2
23:17 61.3 °F 53.4 °F 30 in WSW 2.9 mph 5 mph 75% 0 in 0 W/m2
23:22 61.5 °F 53.6 °F 30 in WSW 0.9 mph 4 mph 75% 0 in 0 W/m2
23:27 61.7 °F 53.8 °F 30 in WSW 2.9 mph 4 mph 75% 0 in 0 W/m2
23:32 61.7 °F 53.8 °F 30 in West 2.9 mph 3 mph 75% 0 in 0 W/m2
23:37 61.7 °F 53.8 °F 30 in WSW 4 mph 4 mph 75% 0 in 0 W/m2
23:42 61.7 °F 53.8 °F 30 in West 0.9 mph 5 mph 75% 0 in 0 W/m2
23:47 61.9 °F 53.8 °F 30 in West 0.9 mph 2 mph 75% 0 in 0 W/m2
23:52 61.7 °F 53.8 °F 30 in West 0.9 mph 4 mph 75% 0 in 0 W/m2
23:57 61.5 °F 53.6 °F 30 in Calm   2 mph 75% 0 in 0 W/m2
Juneau County Weather
Compliments of Weather Underground - 4 mb